NCAR-RAP Real-Time Weather Data

Output produced by METARs form (27 May 2017  08:19 UTC)
found at http://weather.rap.ucar.edu/surface/
 
Conditions at: KGIF observed 27 May 2017  07:53 UTC
Temperature: 17.8°C (64°F)
Dewpoint: 13.3°C (56°F) [RH = 75%]
Pressure (altimeter): 30.06 inches Hg (1018.0 mb)
[Sea-level pressure: 1017.8 mb]
Winds: calm
Visibility: 10 or more miles (16+ km)
Ceiling: at least 12,000 feet AGL
Clouds: sky clear below 12,000 feet AGL
Present Weather: automated observation with no human augmentation;
there may or may not be significant weather present at this time
KGIF 270753Z AUTO 00000KT 10SM CLR 18/13 A3006 RMK AO2 SLP178 T01780133

Conditions at: KGIF observed 27 May 2017  06:53 UTC
Temperature: 18.3°C (65°F)
Dewpoint: 13.3°C (56°F) [RH = 73%]
Pressure (altimeter): 30.06 inches Hg (1018.0 mb)
[Sea-level pressure: 1017.8 mb]
Winds: from the NW (310 degrees) at 3 MPH (3 knots; 1.6 m/s)
Visibility: 10 or more miles (16+ km)
Ceiling: at least 12,000 feet AGL
Clouds: sky clear below 12,000 feet AGL
Present Weather: automated observation with no human augmentation;
there may or may not be significant weather present at this time
KGIF 270653Z AUTO 31003KT 10SM CLR 18/13 A3006 RMK AO2 SLP178 T01830133

Conditions at: KGIF observed 27 May 2017  05:53 UTC
Temperature: 18.9°C (66°F)
Dewpoint: 13.3°C (56°F) [RH = 70%]
Pressure (altimeter): 30.08 inches Hg (1018.7 mb)
[Sea-level pressure: 1018.3 mb]
Winds: from the NW (320 degrees) at 5 MPH (4 knots; 2.1 m/s)
Visibility: 10 or more miles (16+ km)
Ceiling: at least 12,000 feet AGL
Clouds: sky clear below 12,000 feet AGL
Present Weather: automated observation with no human augmentation;
there may or may not be significant weather present at this time
KGIF 270553Z AUTO 32004KT 10SM CLR 19/13 A3008 RMK AO2 SLP183 T01890133 10283 20178 50001

Conditions at: KGIF observed 27 May 2017  04:53 UTC
Temperature: 17.8°C (64°F)
Dewpoint: 13.3°C (56°F) [RH = 75%]
Pressure (altimeter): 30.09 inches Hg (1019.0 mb)
[Sea-level pressure: 1018.8 mb]
Winds: from the N (360 degrees) at 5 MPH (4 knots; 2.1 m/s)
Visibility: 10 or more miles (16+ km)
Ceiling: at least 12,000 feet AGL
Clouds: sky clear below 12,000 feet AGL
Present Weather: automated observation with no human augmentation;
there may or may not be significant weather present at this time
KGIF 270453Z AUTO 36004KT 10SM CLR 18/13 A3009 RMK AO2 SLP188 T01780133 403390167

Conditions at: KGIF observed 27 May 2017  03:53 UTC
Temperature: 21.1°C (70°F)
Dewpoint: 12.2°C (54°F) [RH = 57%]
Pressure (altimeter): 30.09 inches Hg (1019.0 mb)
[Sea-level pressure: 1018.8 mb]
Winds: from the NE (40 degrees) at 5 MPH (4 knots; 2.1 m/s)
Visibility: 10 or more miles (16+ km)
Ceiling: at least 12,000 feet AGL
Clouds: sky clear below 12,000 feet AGL
Present Weather: automated observation with no human augmentation;
there may or may not be significant weather present at this time
KGIF 270353Z AUTO 04004KT 10SM CLR 21/12 A3009 RMK AO2 SLP188 T02110122

Conditions at: KGIF observed 27 May 2017  02:53 UTC
Temperature: 21.7°C (71°F)
Dewpoint: 10.6°C (51°F) [RH = 49%]
Pressure (altimeter): 30.08 inches Hg (1018.7 mb)
[Sea-level pressure: 1018.3 mb]
Winds: calm
Visibility: 10 or more miles (16+ km)
Ceiling: at least 12,000 feet AGL
Clouds: sky clear below 12,000 feet AGL
Present Weather: automated observation with no human augmentation;
there may or may not be significant weather present at this time
KGIF 270253Z AUTO 00000KT 10SM CLR 22/11 A3008 RMK AO2 SLP183 T02170106 53015

Conditions at: KGIF observed 27 May 2017  01:53 UTC
Temperature: 23.9°C (75°F)
Dewpoint: 10.0°C (50°F) [RH = 41%]
Pressure (altimeter): 30.06 inches Hg (1018.0 mb)
[Sea-level pressure: 1017.7 mb]
Winds: from the WNW (290 degrees) at 8 MPH (7 knots; 3.6 m/s)
Visibility: 10 or more miles (16+ km)
Ceiling: at least 12,000 feet AGL
Clouds: sky clear below 12,000 feet AGL
Present Weather: automated observation with no human augmentation;
there may or may not be significant weather present at this time
KGIF 270153Z AUTO 29007KT 10SM CLR 24/10 A3006 RMK AO2 SLP177 T02390100

Conditions at: KGIF observed 27 May 2017  00:53 UTC
Temperature: 25.0°C (77°F)
Dewpoint: 8.9°C (48°F) [RH = 36%]
Pressure (altimeter): 30.04 inches Hg (1017.4 mb)
[Sea-level pressure: 1017.0 mb]
Winds: from the WNW (300 degrees) at 6 MPH (5 knots; 2.6 m/s)
Visibility: 10 or more miles (16+ km)
Ceiling: at least 12,000 feet AGL
Clouds: sky clear below 12,000 feet AGL
Present Weather: automated observation with no human augmentation;
there may or may not be significant weather present at this time
KGIF 270053Z AUTO 30005KT 10SM CLR 25/09 A3004 RMK AO2 SLP170 T02500089

Conditions at: KGIF observed 26 May 2017  23:53 UTC
Temperature: 28.3°C (83°F)
Dewpoint: 7.8°C (46°F) [RH = 28%]
Pressure (altimeter): 30.03 inches Hg (1017.0 mb)
[Sea-level pressure: 1016.8 mb]
Winds: from the NW (310 degrees) at 10 MPH (9 knots; 4.7 m/s)
Visibility: 10 or more miles (16+ km)
Ceiling: at least 12,000 feet AGL
Clouds: sky clear below 12,000 feet AGL
Present Weather: automated observation with no human augmentation;
there may or may not be significant weather present at this time
KGIF 262353Z AUTO 31009KT 10SM CLR 28/08 A3003 RMK AO2 SLP168 T02830078 10339 20283 53008

Conditions at: KGIF observed 26 May 2017  22:53 UTC
Temperature: 31.7°C (89°F)
Dewpoint: 7.8°C (46°F) [RH = 23%]
Pressure (altimeter): 30.02 inches Hg (1016.7 mb)
[Sea-level pressure: 1016.3 mb]
Winds: from the WNW (300 degrees) at 10 MPH (9 knots; 4.7 m/s)
Visibility: 10 or more miles (16+ km)
Ceiling: at least 12,000 feet AGL
Clouds: sky clear below 12,000 feet AGL
Present Weather: automated observation with no human augmentation;
there may or may not be significant weather present at this time
KGIF 262253Z AUTO 30009KT 10SM CLR 32/08 A3002 RMK AO2 SLP163 T03170078

Conditions at: KGIF observed 26 May 2017  21:53 UTC
Temperature: 33.3°C (92°F)
Dewpoint: 10.0°C (50°F) [RH = 24%]
Pressure (altimeter): 30.01 inches Hg (1016.3 mb)
[Sea-level pressure: 1015.9 mb]
Winds: from the NW (310 degrees) at 15 MPH (13 knots; 6.8 m/s)
Visibility: 10 or more miles (16+ km)
Ceiling: at least 12,000 feet AGL
Clouds: sky clear below 12,000 feet AGL
Present Weather: automated observation with no human augmentation;
there may or may not be significant weather present at this time
KGIF 262153Z AUTO 31013KT 10SM CLR 33/10 A3001 RMK AO2 SLP159 T03330100

Conditions at: KGIF observed 26 May 2017  20:53 UTC
Temperature: 33.3°C (92°F)
Dewpoint: 9.4°C (49°F) [RH = 23%]
Pressure (altimeter): 30.01 inches Hg (1016.3 mb)
[Sea-level pressure: 1016.0 mb]
Winds: from the W (270 degrees) at 8 MPH (7 knots; 3.6 m/s)
Visibility: 10 or more miles (16+ km)
Ceiling: at least 12,000 feet AGL
Clouds: sky clear below 12,000 feet AGL
Present Weather: automated observation with no human augmentation;
there may or may not be significant weather present at this time
KGIF 262053Z AUTO 27007KT 10SM CLR 33/09 A3001 RMK AO2 SLP160 T03330094 56017

Conditions at: KGIF observed 26 May 2017  19:53 UTC
Temperature: 33.3°C (92°F)
Dewpoint: 10.0°C (50°F) [RH = 24%]
Pressure (altimeter): 30.02 inches Hg (1016.7 mb)
[Sea-level pressure: 1016.3 mb]
Winds: from the WNW (290 degrees) at 12 MPH (10 knots; 5.2 m/s)
gusting to 17 MPH (15 knots; 7.8 m/s)
Visibility: 10 or more miles (16+ km)
Ceiling: at least 12,000 feet AGL
Clouds: sky clear below 12,000 feet AGL
Present Weather: automated observation with no human augmentation;
there may or may not be significant weather present at this time
KGIF 261953Z AUTO 29010G15KT 10SM CLR 33/10 A3002 RMK AO2 SLP163 T03330100

Conditions at: KGIF observed 26 May 2017  18:53 UTC
Temperature: 32.8°C (91°F)
Dewpoint: 12.2°C (54°F) [RH = 29%]
Pressure (altimeter): 30.04 inches Hg (1017.4 mb)
[Sea-level pressure: 1017.0 mb]
Winds: from the WNW (290 degrees) at 13 MPH (11 knots; 5.7 m/s)
Visibility: 10 or more miles (16+ km)
Ceiling: at least 12,000 feet AGL
Clouds: sky clear below 12,000 feet AGL
Present Weather: automated observation with no human augmentation;
there may or may not be significant weather present at this time
KGIF 261853Z AUTO 29011KT 10SM CLR 33/12 A3004 RMK AO2 SLP170 T03280122

Conditions at: KGIF observed 26 May 2017  17:53 UTC
Temperature: 30.6°C (87°F)
Dewpoint: 13.3°C (56°F) [RH = 35%]
Pressure (altimeter): 30.06 inches Hg (1018.0 mb)
[Sea-level pressure: 1017.7 mb]
Winds: calm
Visibility: 10 or more miles (16+ km)
Ceiling: at least 12,000 feet AGL
Clouds: sky clear below 12,000 feet AGL
Present Weather: automated observation with no human augmentation;
there may or may not be significant weather present at this time
KGIF 261753Z AUTO 00000KT 10SM CLR 31/13 A3006 RMK AO2 SLP177 T03060133 10311 20211 58012

Conditions at: KGIF observed 26 May 2017  16:53 UTC
Temperature: 30.0°C (86°F)
Dewpoint: 13.9°C (57°F) [RH = 37%]
Pressure (altimeter): 30.08 inches Hg (1018.7 mb)
[Sea-level pressure: 1018.3 mb]
Winds: from the NNW (340 degrees) at 5 MPH (4 knots; 2.1 m/s)
Visibility: 10 or more miles (16+ km)
Ceiling: at least 12,000 feet AGL
Clouds: sky clear below 12,000 feet AGL
Present Weather: automated observation with no human augmentation;
there may or may not be significant weather present at this time
KGIF 261653Z AUTO 34004KT 10SM CLR 30/14 A3008 RMK AO2 SLP183 T03000139

Conditions at: KGIF observed 26 May 2017  15:53 UTC
Temperature: 27.8°C (82°F)
Dewpoint: 13.3°C (56°F) [RH = 41%]
Pressure (altimeter): 30.09 inches Hg (1019.0 mb)
[Sea-level pressure: 1018.7 mb]
Winds: from the WNW (290 degrees) at 7 MPH (6 knots; 3.1 m/s)
Visibility: 10 or more miles (16+ km)
Ceiling: at least 12,000 feet AGL
Clouds: sky clear below 12,000 feet AGL
Present Weather: automated observation with no human augmentation;
there may or may not be significant weather present at this time
KGIF 261553Z AUTO 29006KT 10SM CLR 28/13 A3009 RMK AO2 SLP187 T02780133

Conditions at: KGIF observed 26 May 2017  14:53 UTC
Temperature: 25.6°C (78°F)
Dewpoint: 13.3°C (56°F) [RH = 47%]
Pressure (altimeter): 30.09 inches Hg (1019.0 mb)
[Sea-level pressure: 1018.8 mb]
Winds: variable direction winds at 5 MPH (4 knots; 2.1 m/s)
Visibility: 10 or more miles (16+ km)
Ceiling: at least 12,000 feet AGL
Clouds: sky clear below 12,000 feet AGL
Present Weather: automated observation with no human augmentation;
there may or may not be significant weather present at this time
KGIF 261453Z AUTO VRB04KT 10SM CLR 26/13 A3009 RMK AO2 SLP188 T02560133 50006

Conditions at: KGIF observed 26 May 2017  13:53 UTC
Temperature: 25.0°C (77°F)
Dewpoint: 13.9°C (57°F) [RH = 50%]
Pressure (altimeter): 30.10 inches Hg (1019.4 mb)
[Sea-level pressure: 1019.1 mb]
Winds: from the N (360 degrees) at 7 MPH (6 knots; 3.1 m/s)
Visibility: 10 or more miles (16+ km)
Ceiling: at least 12,000 feet AGL
Clouds: sky clear below 12,000 feet AGL
Present Weather: automated observation with no human augmentation;
there may or may not be significant weather present at this time
KGIF 261353Z AUTO 36006KT 10SM CLR 25/14 A3010 RMK AO2 SLP191 T02500139

Conditions at: KGIF observed 26 May 2017  12:53 UTC
Temperature: 23.3°C (74°F)
Dewpoint: 14.4°C (58°F) [RH = 57%]
Pressure (altimeter): 30.10 inches Hg (1019.4 mb)
[Sea-level pressure: 1018.9 mb]
Winds: variable direction winds at 6 MPH (5 knots; 2.6 m/s)
Visibility: 10 or more miles (16+ km)
Ceiling: at least 12,000 feet AGL
Clouds: sky clear below 12,000 feet AGL
Present Weather: automated observation with no human augmentation;
there may or may not be significant weather present at this time
KGIF 261253Z AUTO VRB05KT 10SM CLR 23/14 A3010 RMK AO2 SLP189 T02330144

Conditions at: KGIF observed 26 May 2017  11:53 UTC
Temperature: 21.1°C (70°F)
Dewpoint: 15.6°C (60°F) [RH = 71%]
Pressure (altimeter): 30.08 inches Hg (1018.7 mb)
[Sea-level pressure: 1018.2 mb]
Winds: from the NNE (20 degrees) at 3 MPH (3 knots; 1.6 m/s)
Visibility: 10 or more miles (16+ km)
Ceiling: at least 12,000 feet AGL
Clouds: sky clear below 12,000 feet AGL
Present Weather: automated observation with no human augmentation;
there may or may not be significant weather present at this time
KGIF 261153Z AUTO 02003KT 10SM CLR 21/16 A3008 RMK AO2 SLP182 T02110156 10211 20167 53022

Conditions at: KGIF observed 26 May 2017  10:53 UTC
Temperature: 19.4°C (67°F)
Dewpoint: 15.6°C (60°F) [RH = 79%]
Pressure (altimeter): 30.05 inches Hg (1017.7 mb)
[Sea-level pressure: 1017.2 mb]
Winds: from the NNW (340 degrees) at 8 MPH (7 knots; 3.6 m/s)
Visibility: 10 or more miles (16+ km)
Ceiling: at least 12,000 feet AGL
Clouds: sky clear below 12,000 feet AGL
Present Weather: automated observation with no human augmentation;
there may or may not be significant weather present at this time
KGIF 261053Z AUTO 34007KT 10SM CLR 19/16 A3005 RMK AO2 SLP172 T01940156

Conditions at: KGIF observed 26 May 2017  09:53 UTC
Temperature: 17.2°C (63°F)
Dewpoint: 15.0°C (59°F) [RH = 87%]
Pressure (altimeter): 30.03 inches Hg (1017.0 mb)
[Sea-level pressure: 1016.6 mb]
Winds: from the NW (320 degrees) at 3 MPH (3 knots; 1.6 m/s)
Visibility: 10 or more miles (16+ km)
Ceiling: at least 12,000 feet AGL
Clouds: sky clear below 12,000 feet AGL
Present Weather: automated observation with no human augmentation;
there may or may not be significant weather present at this time
KGIF 260953Z AUTO 32003KT 10SM CLR 17/15 A3003 RMK AO2 SLP166 T01720150

Conditions at: KGIF observed 26 May 2017  08:53 UTC
Temperature: 17.8°C (64°F)
Dewpoint: 15.0°C (59°F) [RH = 84%]
Pressure (altimeter): 30.01 inches Hg (1016.3 mb)
[Sea-level pressure: 1016.0 mb]
Winds: from the W (280 degrees) at 3 MPH (3 knots; 1.6 m/s)
Visibility: 10 or more miles (16+ km)
Ceiling: at least 12,000 feet AGL
Clouds: sky clear below 12,000 feet AGL
Present Weather: automated observation with no human augmentation;
there may or may not be significant weather present at this time
KGIF 260853Z AUTO 28003KT 10SM CLR 18/15 A3001 RMK AO2 SLP160 T01780150 53005